createdAt,value
2024-04-18T00:00:27.039Z,824.30
2024-04-18T00:01:27.015Z,829.10
2024-04-18T00:02:27.053Z,809.10
2024-04-18T00:03:27.056Z,801.20
2024-04-18T00:04:27.037Z,826.00
2024-04-18T00:05:27.006Z,830.60
2024-04-18T00:06:26.967Z,838.50
2024-04-18T00:07:26.889Z,840.40
2024-04-18T00:08:26.887Z,814.10
2024-04-18T00:09:26.940Z,794.10
2024-04-18T00:10:27.069Z,790.10
2024-04-18T00:11:26.914Z,842.60
2024-04-18T00:12:26.877Z,841.60
2024-04-18T00:13:26.963Z,875.60
2024-04-18T00:14:26.832Z,870.20
2024-04-18T00:15:27.602Z,856.80
2024-04-18T00:16:26.827Z,850.90
2024-04-18T00:17:26.988Z,817.50
2024-04-18T00:18:26.992Z,850.10
2024-04-18T00:19:26.813Z,850.30
2024-04-18T00:20:27.037Z,869.60
2024-04-18T00:21:26.894Z,840.60
2024-04-18T00:22:26.898Z,854.70
2024-04-18T00:23:27.780Z,833.70
2024-04-18T00:24:26.797Z,906.30
2024-04-18T00:25:26.945Z,929.80
2024-04-18T00:26:26.777Z,863.20
2024-04-18T00:27:26.799Z,887.50
2024-04-18T00:28:26.792Z,838.40
2024-04-18T00:29:26.764Z,877.60
2024-04-18T00:30:26.775Z,859.00
2024-04-18T00:31:26.748Z,871.70
2024-04-18T00:32:26.740Z,830.20
2024-04-18T00:33:26.801Z,811.30
2024-04-18T00:34:26.750Z,851.20
2024-04-18T00:35:26.737Z,805.50
2024-04-18T00:36:26.722Z,852.50
2024-04-18T00:37:26.715Z,843.60
2024-04-18T00:38:26.725Z,838.60
2024-04-18T00:39:26.744Z,781.50
2024-04-18T00:40:26.689Z,845.60
2024-04-18T00:41:26.813Z,841.50
2024-04-18T00:42:26.831Z,821.50
2024-04-18T00:43:26.690Z,845.70
2024-04-18T00:44:26.653Z,827.40
2024-04-18T00:45:26.747Z,875.10
2024-04-18T00:46:26.633Z,855.60
2024-04-18T00:47:26.785Z,859.40
2024-04-18T00:48:26.812Z,843.10
2024-04-18T00:49:26.659Z,849.80
2024-04-18T00:50:26.766Z,845.10
2024-04-18T00:51:26.625Z,842.10
2024-04-18T00:52:26.660Z,805.40
2024-04-18T00:53:26.915Z,821.10
2024-04-18T00:54:26.595Z,784.10
2024-04-18T00:55:26.597Z,824.10
2024-04-18T00:56:26.607Z,810.20
2024-04-18T00:57:26.597Z,834.70
2024-04-18T00:58:26.627Z,791.00
2024-04-18T00:59:26.554Z,832.20
2024-04-18T01:00:26.646Z,847.70
2024-04-18T01:01:26.588Z,840.60
2024-04-18T01:02:26.570Z,843.60
2024-04-18T01:03:26.601Z,835.10
2024-04-18T01:04:26.641Z,831.40
2024-04-18T01:05:26.528Z,834.60
2024-04-18T01:06:26.575Z,841.20
2024-04-18T01:07:26.514Z,789.20
2024-04-18T01:08:26.487Z,855.90
2024-04-18T01:09:26.510Z,848.70
2024-04-18T01:10:26.515Z,853.40
2024-04-18T01:11:26.651Z,868.50
2024-04-18T01:12:26.488Z,877.60
2024-04-18T01:13:26.508Z,850.60
2024-04-18T01:14:26.449Z,868.80
2024-04-18T01:15:26.518Z,880.70
2024-04-18T01:16:26.459Z,889.70
2024-04-18T01:17:26.473Z,873.90
2024-04-18T01:18:26.543Z,860.00
2024-04-18T01:19:26.424Z,862.40
2024-04-18T01:20:26.456Z,810.60
2024-04-18T01:21:26.439Z,847.80
2024-04-18T01:22:26.434Z,838.10
2024-04-18T01:23:26.422Z,860.80
2024-04-18T01:24:27.422Z,839.00
2024-04-18T01:25:26.397Z,791.80
2024-04-18T01:26:26.388Z,825.90
2024-04-18T01:27:26.407Z,853.10
2024-04-18T01:28:26.402Z,890.20
2024-04-18T01:29:26.354Z,830.70
2024-04-18T01:30:26.388Z,831.40
2024-04-18T01:31:26.333Z,817.10
2024-04-18T01:32:26.413Z,853.60
2024-04-18T01:33:26.768Z,838.50
2024-04-18T01:34:27.599Z,818.80
2024-04-18T01:35:26.332Z,814.70
2024-04-18T01:36:26.375Z,919.90
2024-04-18T01:37:26.358Z,831.50
2024-04-18T01:38:26.287Z,856.90
2024-04-18T01:39:26.333Z,859.70
2024-04-18T01:40:26.286Z,779.30
2024-04-18T01:41:26.278Z,814.30
2024-04-18T01:42:26.335Z,824.00
2024-04-18T01:43:26.374Z,840.80
2024-04-18T01:44:26.246Z,829.20
2024-04-18T01:45:26.349Z,799.00
2024-04-18T01:46:26.257Z,827.70
2024-04-18T01:47:26.309Z,822.80
2024-04-18T01:48:26.372Z,818.30
2024-04-18T01:49:26.263Z,789.10
2024-04-18T01:50:26.222Z,806.60
2024-04-18T01:51:26.266Z,879.80
2024-04-18T01:52:26.245Z,856.00
2024-04-18T01:53:26.223Z,804.10
2024-04-18T01:54:26.243Z,828.40
2024-04-18T01:55:26.212Z,835.20
2024-04-18T01:56:26.212Z,832.80
2024-04-18T01:57:26.204Z,813.20
2024-04-18T01:58:26.202Z,778.90
2024-04-18T01:59:26.190Z,802.30
2024-04-18T02:00:26.189Z,719.40
2024-04-18T02:01:26.239Z,822.70
2024-04-18T02:02:26.158Z,789.80
2024-04-18T02:03:26.224Z,797.60
2024-04-18T02:04:26.257Z,856.00
2024-04-18T02:05:26.111Z,828.70
2024-04-18T02:06:26.329Z,813.90
2024-04-18T02:07:26.148Z,819.90
2024-04-18T02:08:26.119Z,857.50
2024-04-18T02:09:26.181Z,832.70
2024-04-18T02:10:26.110Z,840.60
2024-04-18T02:11:26.115Z,853.30
2024-04-18T02:13:26.083Z,825.20
2024-04-18T02:14:26.059Z,859.00
2024-04-18T02:15:26.181Z,850.20
2024-04-18T02:16:26.104Z,810.10
2024-04-18T02:17:26.071Z,844.00
2024-04-18T02:18:26.090Z,886.40
2024-04-18T02:19:26.074Z,872.50
2024-04-18T02:20:26.091Z,862.40
2024-04-18T02:21:26.050Z,866.20
2024-04-18T02:22:26.026Z,848.00
2024-04-18T02:23:26.001Z,856.90
2024-04-18T02:24:26.069Z,861.80
2024-04-18T02:25:26.052Z,853.90
2024-04-18T02:26:26.014Z,851.70
2024-04-18T02:27:26.028Z,872.30
2024-04-18T02:28:25.986Z,882.00
2024-04-18T02:29:25.991Z,884.90
2024-04-18T02:30:27.054Z,908.50
2024-04-18T02:31:26.968Z,848.20
2024-04-18T02:32:26.198Z,865.90
2024-04-18T02:33:25.975Z,849.40
2024-04-18T02:34:25.996Z,856.70
2024-04-18T02:35:26.934Z,872.10
2024-04-18T02:36:25.943Z,856.00
2024-04-18T02:37:25.905Z,867.10
2024-04-18T02:38:25.897Z,876.60
2024-04-18T02:39:25.949Z,908.00
2024-04-18T02:40:25.932Z,882.70
2024-04-18T02:41:25.923Z,842.60
2024-04-18T02:42:25.925Z,878.50
2024-04-18T02:43:25.872Z,871.90
2024-04-18T02:44:25.874Z,839.30
2024-04-18T02:45:25.875Z,826.50
2024-04-18T02:46:25.902Z,861.40
2024-04-18T02:47:25.902Z,838.30
2024-04-18T02:48:25.958Z,841.60
2024-04-18T02:49:25.899Z,812.30
2024-04-18T02:50:25.841Z,827.40
2024-04-18T02:51:25.912Z,814.20
2024-04-18T02:52:25.829Z,912.10
2024-04-18T02:53:25.879Z,859.80
2024-04-18T02:54:25.839Z,845.70
2024-04-18T02:55:25.837Z,844.50
2024-04-18T02:56:25.838Z,838.90
2024-04-18T02:57:25.837Z,836.00
2024-04-18T02:58:25.795Z,856.80
2024-04-18T02:59:25.779Z,877.80
2024-04-18T03:00:25.790Z,844.30
2024-04-18T03:01:25.822Z,829.90
2024-04-18T03:02:25.811Z,840.70
2024-04-18T03:03:25.804Z,855.00
2024-04-18T03:04:25.788Z,831.00
2024-04-18T03:05:25.776Z,909.80
2024-04-18T03:06:25.794Z,844.30
2024-04-18T03:07:25.775Z,823.50
2024-04-18T03:08:25.731Z,811.70
2024-04-18T03:09:25.762Z,857.50
2024-04-18T03:10:25.770Z,802.00
2024-04-18T03:11:25.944Z,865.70
2024-04-18T03:12:25.768Z,821.70
2024-04-18T03:13:25.701Z,862.80
2024-04-18T03:14:25.778Z,920.40
2024-04-18T03:15:25.701Z,880.30
2024-04-18T03:16:25.718Z,850.10
2024-04-18T03:17:25.753Z,858.10
2024-04-18T03:18:25.721Z,829.80
2024-04-18T03:19:25.681Z,813.30
2024-04-18T03:20:25.673Z,846.20
2024-04-18T03:21:26.676Z,850.80
2024-04-18T03:22:25.695Z,901.20
2024-04-18T03:23:25.673Z,871.60
2024-04-18T03:24:25.690Z,842.70
2024-04-18T03:25:25.642Z,924.90
2024-04-18T03:26:25.647Z,958.90
2024-04-18T03:27:25.643Z,899.10
2024-04-18T03:28:25.972Z,921.50
2024-04-18T03:29:25.597Z,934.60
2024-04-18T03:30:25.580Z,907.20
2024-04-18T03:31:25.598Z,966.50
2024-04-18T03:32:25.645Z,975.20
2024-04-18T03:33:25.646Z,901.10
2024-04-18T03:34:25.549Z,904.20
2024-04-18T03:35:25.560Z,864.60
2024-04-18T03:36:25.568Z,857.00
2024-04-18T03:37:25.527Z,830.40
2024-04-18T03:38:25.543Z,883.70
2024-04-18T03:39:25.556Z,882.70
2024-04-18T03:40:25.980Z,877.30
2024-04-18T03:41:25.509Z,882.70
2024-04-18T03:42:25.523Z,910.80
2024-04-18T03:43:25.527Z,900.00
2024-04-18T03:44:25.505Z,919.50
2024-04-18T03:45:25.528Z,890.10
2024-04-18T03:46:25.486Z,809.20
2024-04-18T03:47:25.555Z,899.90
2024-04-18T03:48:25.491Z,881.10
2024-04-18T03:49:25.456Z,882.70
2024-04-18T03:50:25.468Z,847.40
2024-04-18T03:51:25.474Z,878.30
2024-04-18T03:52:25.447Z,840.30
2024-04-18T03:53:25.443Z,883.00
2024-04-18T03:54:25.445Z,878.60
2024-04-18T03:55:25.483Z,848.90
2024-04-18T03:56:25.447Z,825.40
2024-04-18T03:57:25.467Z,879.30
2024-04-18T03:58:25.405Z,871.70
2024-04-18T03:59:25.395Z,847.70
2024-04-18T04:00:25.401Z,846.00
2024-04-18T04:01:25.669Z,837.10
2024-04-18T04:02:25.438Z,875.90
2024-04-18T04:03:25.404Z,866.50
2024-04-18T04:04:25.464Z,872.30
2024-04-18T04:05:25.360Z,891.50
2024-04-18T04:06:25.482Z,876.80
2024-04-18T04:07:25.375Z,866.00
2024-04-18T04:08:25.338Z,876.80
2024-04-18T04:09:25.346Z,899.40
2024-04-18T04:10:25.333Z,874.20
2024-04-18T04:11:25.354Z,886.20
2024-04-18T04:12:25.346Z,898.00
2024-04-18T04:13:25.309Z,881.90
2024-04-18T04:14:25.338Z,885.30
2024-04-18T04:15:25.314Z,890.30
2024-04-18T04:16:25.298Z,879.70
2024-04-18T04:17:25.305Z,870.70
2024-04-18T04:18:25.366Z,894.10
2024-04-18T04:19:25.325Z,909.00
2024-04-18T04:20:25.899Z,867.80
2024-04-18T04:21:25.329Z,919.90
2024-04-18T04:22:25.288Z,893.00
2024-04-18T04:23:25.334Z,911.40
2024-04-18T04:24:25.324Z,894.70
2024-04-18T04:25:25.240Z,872.30
2024-04-18T04:26:25.231Z,888.20
2024-04-18T04:27:25.252Z,894.70
2024-04-18T04:28:25.252Z,877.30
2024-04-18T04:29:25.225Z,901.20
2024-04-18T04:30:25.243Z,872.40
2024-04-18T04:31:25.204Z,910.40
2024-04-18T04:32:25.346Z,826.50
2024-04-18T04:33:25.226Z,923.60
2024-04-18T04:34:25.193Z,874.50
2024-04-18T04:35:25.171Z,885.00
2024-04-18T04:36:25.776Z,903.30
2024-04-18T04:37:26.203Z,879.00
2024-04-18T04:38:25.207Z,903.70
2024-04-18T04:39:25.231Z,919.20
2024-04-18T04:40:25.155Z,869.10
2024-04-18T04:41:25.147Z,917.20
2024-04-18T04:42:25.197Z,940.50
2024-04-18T04:43:25.132Z,856.90
2024-04-18T04:44:25.163Z,944.70
2024-04-18T04:45:25.208Z,912.80
2024-04-18T04:46:25.098Z,917.20
2024-04-18T04:47:25.198Z,918.90
2024-04-18T04:48:25.353Z,885.70
2024-04-18T04:49:25.193Z,892.60
2024-04-18T04:50:25.236Z,920.80
2024-04-18T04:51:25.090Z,922.50
2024-04-18T04:52:25.073Z,947.20
2024-04-18T04:53:25.131Z,851.70
2024-04-18T04:54:25.962Z,874.70
2024-04-18T04:55:25.057Z,930.20
2024-04-18T04:56:25.109Z,891.20
2024-04-18T04:57:25.090Z,892.60
2024-04-18T04:58:25.070Z,923.50
2024-04-18T04:59:25.086Z,867.80
2024-04-18T05:00:25.074Z,894.40
2024-04-18T05:01:25.074Z,913.80
2024-04-18T05:02:25.044Z,898.60
2024-04-18T05:03:25.074Z,868.50
2024-04-18T05:04:25.555Z,838.20
2024-04-18T05:05:25.035Z,870.00
2024-04-18T05:06:25.071Z,879.00
2024-04-18T05:07:24.974Z,878.30
2024-04-18T05:08:24.964Z,877.80
2024-04-18T05:09:25.010Z,871.70
2024-04-18T05:10:24.946Z,870.20
2024-04-18T05:11:25.020Z,812.00
2024-04-18T05:12:24.983Z,886.50
2024-04-18T05:13:24.964Z,848.20
2024-04-18T05:14:24.978Z,861.80
2024-04-18T05:15:24.991Z,879.10
2024-04-18T05:16:26.412Z,893.50
2024-04-18T05:17:26.089Z,859.40
2024-04-18T05:18:24.912Z,857.50
2024-04-18T05:19:24.915Z,853.10
2024-04-18T05:20:25.066Z,870.70
2024-04-18T05:21:24.901Z,888.10
2024-04-18T05:22:24.893Z,876.00
2024-04-18T05:23:24.943Z,868.40
2024-04-18T05:24:24.913Z,864.40
2024-04-18T05:25:24.892Z,846.70
2024-04-18T05:26:24.849Z,840.80
2024-04-18T05:27:24.910Z,857.30
2024-04-18T05:28:24.881Z,886.70
2024-04-18T05:29:24.950Z,862.00
2024-04-18T05:30:24.952Z,822.10
2024-04-18T05:31:24.925Z,871.80
2024-04-18T05:32:24.936Z,863.70
2024-04-18T05:33:24.932Z,865.90
2024-04-18T05:34:24.826Z,860.60
2024-04-18T05:35:24.817Z,868.80
2024-04-18T05:36:24.829Z,809.50
2024-04-18T05:37:24.859Z,800.20
2024-04-18T05:38:24.896Z,820.80
2024-04-18T05:39:24.852Z,894.80
2024-04-18T05:40:24.849Z,904.80
2024-04-18T05:41:24.774Z,914.10
2024-04-18T05:42:24.810Z,864.50
2024-04-18T05:43:24.822Z,900.40
2024-04-18T05:44:24.803Z,897.30
2024-04-18T05:45:24.842Z,801.20
2024-04-18T05:46:24.750Z,896.80
2024-04-18T05:47:24.853Z,829.70
2024-04-18T05:48:24.796Z,854.30
2024-04-18T05:49:24.728Z,877.70
2024-04-18T05:50:24.816Z,886.10
2024-04-18T05:51:24.787Z,889.90
2024-04-18T05:52:24.794Z,880.90
2024-04-18T05:53:24.724Z,870.10
2024-04-18T05:54:24.740Z,872.60
2024-04-18T05:55:24.740Z,836.40
2024-04-18T05:56:25.024Z,872.80
2024-04-18T05:57:24.741Z,884.70
2024-04-18T05:58:24.679Z,881.70
2024-04-18T05:59:24.669Z,890.40
2024-04-18T06:00:24.676Z,840.70
2024-04-18T06:01:24.782Z,885.20
2024-04-18T06:02:31.453Z,889.30
2024-04-18T06:03:24.656Z,897.50
2024-04-18T06:04:24.730Z,889.40
2024-04-18T06:05:24.638Z,873.20
2024-04-18T06:06:24.704Z,872.20
2024-04-18T06:07:24.669Z,842.60
2024-04-18T06:08:24.651Z,898.60
2024-04-18T06:09:24.647Z,880.50
2024-04-18T06:10:24.690Z,892.80
2024-04-18T06:11:24.690Z,872.10
2024-04-18T06:12:24.668Z,892.20
2024-04-18T06:13:24.615Z,858.30
2024-04-18T06:14:24.624Z,836.70
2024-04-18T06:15:24.582Z,892.00
2024-04-18T06:16:24.741Z,861.70
2024-04-18T06:17:24.554Z,841.20
2024-04-18T06:18:24.603Z,880.70
2024-04-18T06:19:27.044Z,862.30
2024-04-18T06:20:24.571Z,891.50
2024-04-18T06:21:24.596Z,882.90
2024-04-18T06:22:24.539Z,856.70
2024-04-18T06:23:24.529Z,859.10
2024-04-18T06:24:24.537Z,851.40
2024-04-18T06:25:24.521Z,871.60
2024-04-18T06:26:24.533Z,862.60
2024-04-18T06:27:24.524Z,870.20
2024-04-18T06:28:24.499Z,847.20
2024-04-18T06:29:24.538Z,843.00
2024-04-18T06:30:24.543Z,852.10
2024-04-18T06:31:24.529Z,831.80
2024-04-18T06:32:24.511Z,870.50
2024-04-18T06:33:24.627Z,874.30
2024-04-18T06:34:24.540Z,894.70
2024-04-18T06:35:24.475Z,879.40
2024-04-18T06:36:24.488Z,862.10
2024-04-18T06:37:24.452Z,817.60
2024-04-18T06:38:24.452Z,866.10
2024-04-18T06:39:24.487Z,856.00
2024-04-18T06:40:24.463Z,849.60
2024-04-18T06:41:24.444Z,852.30
2024-04-18T06:42:24.419Z,827.90
2024-04-18T06:43:25.211Z,859.90
2024-04-18T06:44:25.387Z,847.40
2024-04-18T06:45:24.391Z,828.00
2024-04-18T06:46:24.436Z,859.20
2024-04-18T06:47:24.404Z,836.70
2024-04-18T06:48:24.608Z,854.00
2024-04-18T06:49:24.379Z,868.00
2024-04-18T06:50:26.774Z,857.00
2024-04-18T06:51:24.513Z,836.80
2024-04-18T06:52:24.403Z,840.70
2024-04-18T06:53:24.351Z,863.10
2024-04-18T06:54:24.368Z,851.40
2024-04-18T06:55:24.374Z,842.10
2024-04-18T06:56:24.357Z,816.20
2024-04-18T06:57:24.448Z,842.50
2024-04-18T06:58:24.310Z,857.80
2024-04-18T06:59:24.365Z,825.90
2024-04-18T07:00:24.332Z,891.90
2024-04-18T07:01:24.374Z,883.00
2024-04-18T07:02:24.320Z,771.40
2024-04-18T07:03:24.543Z,818.30
2024-04-18T07:04:24.456Z,889.50
2024-04-18T07:05:24.343Z,851.20
2024-04-18T07:06:24.337Z,884.80
2024-04-18T07:07:24.285Z,874.90
2024-04-18T07:08:24.670Z,919.50
2024-04-18T07:09:24.322Z,850.60
2024-04-18T07:10:24.247Z,782.90
2024-04-18T07:11:24.304Z,738.00
2024-04-18T07:12:24.291Z,730.10
2024-04-18T07:13:24.340Z,712.10
2024-04-18T07:14:24.256Z,770.60
2024-04-18T07:15:24.262Z,759.00
2024-04-18T07:16:24.208Z,801.10
2024-04-18T07:17:24.325Z,725.00
2024-04-18T07:18:24.310Z,838.80
2024-04-18T07:19:24.260Z,843.70
2024-04-18T07:20:24.224Z,736.60
2024-04-18T07:21:24.252Z,711.10
2024-04-18T07:22:24.197Z,747.70
2024-04-18T07:23:24.211Z,759.40
2024-04-18T07:24:24.216Z,661.60
2024-04-18T07:25:24.232Z,787.40
2024-04-18T07:26:24.963Z,699.00
2024-04-18T07:27:24.287Z,744.10
2024-04-18T07:28:24.205Z,673.50
2024-04-18T07:29:24.164Z,699.70
2024-04-18T07:30:24.178Z,701.70
2024-04-18T07:31:24.209Z,692.20
2024-04-18T07:32:24.128Z,637.30
2024-04-18T07:33:24.400Z,836.60
2024-04-18T07:34:24.357Z,586.10
2024-04-18T07:35:24.103Z,557.20
2024-04-18T07:36:24.176Z,579.20
2024-04-18T07:37:24.107Z,553.50
2024-04-18T07:38:24.147Z,601.00
2024-04-18T07:39:24.155Z,623.00
2024-04-18T07:40:24.081Z,627.40
2024-04-18T07:41:24.061Z,621.40
2024-04-18T07:42:24.169Z,609.00
2024-04-18T07:43:24.059Z,634.10
2024-04-18T07:44:25.112Z,583.80
2024-04-18T07:45:25.193Z,665.40
2024-04-18T07:46:24.013Z,680.90
2024-04-18T07:47:24.080Z,644.60
2024-04-18T07:48:24.126Z,629.40
2024-04-18T07:49:24.094Z,583.10
2024-04-18T07:50:24.033Z,554.70
2024-04-18T07:51:24.198Z,603.40
2024-04-18T07:52:24.080Z,589.30
2024-04-18T07:53:24.946Z,616.90
2024-04-18T07:54:24.057Z,862.60
2024-04-18T07:55:23.951Z,892.90
2024-04-18T07:56:24.559Z,754.90
2024-04-18T07:57:24.653Z,684.50
2024-04-18T07:58:24.387Z,654.30
2024-04-18T07:59:24.408Z,806.00
2024-04-18T08:00:25.429Z,778.50
2024-04-18T08:01:25.234Z,789.00
2024-04-18T08:02:25.463Z,750.60
2024-04-18T08:03:25.923Z,836.60
2024-04-18T08:04:44.999Z,835.60
2024-04-18T08:05:27.740Z,706.90
2024-04-18T08:06:26.692Z,674.30
2024-04-18T08:07:28.409Z,761.60
2024-04-18T08:08:27.498Z,706.90
2024-04-18T08:09:26.142Z,855.70
2024-04-18T08:10:32.805Z,766.50
2024-04-18T08:11:53.542Z,746.50
2024-04-18T08:12:29.677Z,777.80
2024-04-18T08:13:27.883Z,815.50
2024-04-18T08:14:29.543Z,844.60
2024-04-18T08:16:24.893Z,654.90
2024-04-18T08:17:23.932Z,655.20
2024-04-18T08:18:23.884Z,699.60
2024-04-18T08:19:23.816Z,657.10
2024-04-18T08:20:23.781Z,660.50
2024-04-18T08:21:23.914Z,668.90
2024-04-18T08:22:23.769Z,654.70
2024-04-18T08:23:23.773Z,660.10
2024-04-18T08:24:23.819Z,648.40
2024-04-18T08:25:23.873Z,614.20
2024-04-18T08:26:23.771Z,634.20
2024-04-18T08:27:23.740Z,584.70
2024-04-18T08:28:23.813Z,614.70
2024-04-18T08:29:23.696Z,680.40
2024-04-18T08:30:23.761Z,731.90
2024-04-18T08:31:23.773Z,668.00
2024-04-18T08:32:23.767Z,608.10
2024-04-18T08:33:24.813Z,581.70
2024-04-18T08:34:25.035Z,571.30
2024-04-18T08:35:23.681Z,543.80
2024-04-18T08:36:23.761Z,562.10
2024-04-18T08:37:23.660Z,520.70
2024-04-18T08:38:23.710Z,597.60
2024-04-18T08:39:23.680Z,547.10
2024-04-18T08:40:23.702Z,590.50
2024-04-18T08:41:23.736Z,642.90
2024-04-18T08:42:23.725Z,702.10
2024-04-18T08:43:23.683Z,724.50
2024-04-18T08:44:23.613Z,714.10
2024-04-18T08:45:23.661Z,735.90
2024-04-18T08:46:23.612Z,753.70
2024-04-18T08:47:23.675Z,766.80
2024-04-18T08:48:23.742Z,695.40
2024-04-18T08:49:23.639Z,601.50
2024-04-18T08:50:23.703Z,632.90
2024-04-18T08:51:23.621Z,741.40
2024-04-18T08:52:23.580Z,775.40
2024-04-18T08:53:23.601Z,685.20
2024-04-18T08:54:23.668Z,695.30
2024-04-18T08:55:23.626Z,731.60
2024-04-18T08:56:23.544Z,783.80
2024-04-18T08:57:23.631Z,745.60
2024-04-18T08:58:23.621Z,762.80
2024-04-18T08:59:23.573Z,779.20
2024-04-18T09:00:23.589Z,718.20
2024-04-18T09:01:23.574Z,675.30
2024-04-18T09:02:23.580Z,759.50
2024-04-18T09:03:23.674Z,788.20
2024-04-18T09:04:23.559Z,790.80
2024-04-18T09:05:23.516Z,721.70
2024-04-18T09:06:23.619Z,682.70
2024-04-18T09:07:23.570Z,763.00
2024-04-18T09:08:23.499Z,695.80
2024-04-18T09:09:23.491Z,719.70
2024-04-18T09:10:23.497Z,787.10
2024-04-18T09:11:23.651Z,791.10
2024-04-18T09:12:23.522Z,793.20
2024-04-18T09:13:24.424Z,826.00
2024-04-18T09:14:24.473Z,862.20
2024-04-18T09:15:23.623Z,821.20
2024-04-18T09:16:23.433Z,816.10
2024-04-18T09:17:23.587Z,714.50
2024-04-18T09:18:23.526Z,630.70
2024-04-18T09:19:24.581Z,651.60
2024-04-18T09:20:23.454Z,652.70
2024-04-18T09:21:23.422Z,649.90
2024-04-18T09:22:23.444Z,638.90
2024-04-18T09:23:23.402Z,628.80
2024-04-18T09:24:23.444Z,660.80
2024-04-18T09:25:23.352Z,660.10
2024-04-18T09:26:23.353Z,588.60
2024-04-18T09:27:24.378Z,667.70
2024-04-18T09:28:23.396Z,580.90
2024-04-18T09:29:23.366Z,530.70
2024-04-18T09:30:23.482Z,542.90
2024-04-18T09:31:30.422Z,614.30
2024-04-18T09:32:25.381Z,508.80
2024-04-18T09:33:23.407Z,605.10
2024-04-18T09:34:23.468Z,621.40
2024-04-18T09:35:23.324Z,635.10
2024-04-18T09:36:23.435Z,682.40
2024-04-18T09:37:23.366Z,677.40
2024-04-18T09:38:23.301Z,646.80
2024-04-18T09:39:23.428Z,658.90
2024-04-18T09:40:23.356Z,670.00
2024-04-18T09:41:23.315Z,651.70
2024-04-18T09:42:23.996Z,616.90
2024-04-18T09:43:23.277Z,647.50
2024-04-18T09:44:25.361Z,520.40
2024-04-18T09:45:23.542Z,615.70
2024-04-18T09:46:23.238Z,549.90
2024-04-18T09:47:23.248Z,667.70
2024-04-18T09:48:23.393Z,593.40
2024-04-18T09:49:23.431Z,646.70
2024-04-18T09:50:23.212Z,651.60
2024-04-18T09:51:23.257Z,653.50
2024-04-18T09:52:23.218Z,545.80
2024-04-18T09:53:23.204Z,532.80
2024-04-18T09:54:23.988Z,698.50
2024-04-18T09:55:25.587Z,611.80
2024-04-18T09:56:24.222Z,659.30
2024-04-18T09:57:23.181Z,604.80
2024-04-18T09:58:23.195Z,687.90
2024-04-18T09:59:23.249Z,672.40
2024-04-18T10:00:23.337Z,635.00
2024-04-18T10:01:23.185Z,678.20
2024-04-18T10:02:23.183Z,659.60
2024-04-18T10:03:23.230Z,646.00
2024-04-18T10:04:23.246Z,746.90
2024-04-18T10:05:23.149Z,740.70
2024-04-18T10:06:23.242Z,615.30
2024-04-18T10:07:23.144Z,673.50
2024-04-18T10:08:23.136Z,625.40
2024-04-18T10:09:23.164Z,580.40
2024-04-18T10:10:23.105Z,754.00
2024-04-18T10:11:23.222Z,577.40
2024-04-18T10:12:23.207Z,700.40
2024-04-18T10:13:23.220Z,644.90
2024-04-18T10:14:23.100Z,767.50
2024-04-18T10:15:23.222Z,776.30
2024-04-18T10:16:23.075Z,539.60
2024-04-18T10:17:23.082Z,770.60
2024-04-18T10:18:23.167Z,818.80
2024-04-18T10:19:23.103Z,818.20
2024-04-18T10:20:24.032Z,650.10
2024-04-18T10:21:32.087Z,744.10
2024-04-18T10:22:36.203Z,719.20
2024-04-18T10:23:24.032Z,708.10
2024-04-18T10:24:23.148Z,758.80
2024-04-18T10:25:22.984Z,827.90
2024-04-18T10:26:23.033Z,875.40
2024-04-18T10:27:23.049Z,724.80
2024-04-18T10:28:23.015Z,734.90
2024-04-18T10:29:23.022Z,614.40
2024-04-18T10:30:23.015Z,675.40
2024-04-18T10:31:22.974Z,642.70
2024-04-18T10:32:22.992Z,649.70
2024-04-18T10:33:23.101Z,651.50
2024-04-18T10:34:23.813Z,704.20
2024-04-18T10:35:22.974Z,686.30
2024-04-18T10:36:22.950Z,556.80
2024-04-18T10:37:23.839Z,295.70
2024-04-18T10:38:22.975Z,638.50
2024-04-18T10:39:23.351Z,371.50
2024-04-18T10:40:22.953Z,520.80
2024-04-18T10:41:22.902Z,523.80
2024-04-18T10:42:23.026Z,458.90
2024-04-18T10:43:22.903Z,221.80
2024-04-18T10:44:23.938Z,386.20
2024-04-18T10:45:22.899Z,321.10
2024-04-18T10:46:22.862Z,366.70
2024-04-18T10:47:22.942Z,199.10
2024-04-18T10:48:23.047Z,483.60
2024-04-18T10:49:22.983Z,323.70
2024-04-18T10:50:22.917Z,328.80
2024-04-18T10:51:22.940Z,359.50
2024-04-18T10:52:22.873Z,333.60
2024-04-18T10:53:22.818Z,299.20
2024-04-18T10:54:22.833Z,332.40
2024-04-18T10:55:22.814Z,242.30
2024-04-18T10:56:22.842Z,297.10
2024-04-18T10:57:22.898Z,244.90
2024-04-18T10:58:22.789Z,250.30
2024-04-18T10:59:22.856Z,409.80
2024-04-18T11:00:22.845Z,224.30
2024-04-18T11:01:22.830Z,282.30
2024-04-18T11:02:22.886Z,344.90
2024-04-18T11:03:22.859Z,559.10
2024-04-18T11:04:22.916Z,299.40
2024-04-18T11:05:22.792Z,498.20
2024-04-18T11:06:22.776Z,278.00
2024-04-18T11:07:22.758Z,539.60
2024-04-18T11:08:22.733Z,379.10
2024-04-18T11:09:22.855Z,315.80
2024-04-18T11:10:22.752Z,154.30
2024-04-18T11:11:22.746Z,69.40
2024-04-18T11:12:22.758Z,47.80
2024-04-18T11:13:24.033Z,33.60
2024-04-18T11:14:23.171Z,32.80
2024-04-18T11:15:26.443Z,32.30
2024-04-18T11:16:25.746Z,38.50
2024-04-18T11:17:29.011Z,35.40
2024-04-18T11:18:31.716Z,58.50
2024-04-18T11:19:25.187Z,102.10
2024-04-18T11:20:23.043Z,155.40
2024-04-18T11:21:24.963Z,58.40
2024-04-18T11:22:22.699Z,205.40
2024-04-18T11:23:29.197Z,142.30
2024-04-18T11:24:25.874Z,135.30
2024-04-18T11:25:23.860Z,307.10
2024-04-18T11:26:22.764Z,349.80
2024-04-18T11:27:24.629Z,322.50
2024-04-18T11:28:25.686Z,292.10
2024-04-18T11:29:25.151Z,179.00
2024-04-18T11:30:22.690Z,409.20
2024-04-18T11:31:22.795Z,322.10
2024-04-18T11:32:22.853Z,343.40
2024-04-18T11:33:22.765Z,267.70
2024-04-18T11:34:23.606Z,331.90
2024-04-18T11:35:22.691Z,292.00
2024-04-18T11:36:23.003Z,471.70
2024-04-18T11:37:22.648Z,584.90
2024-04-18T11:38:22.575Z,562.50
2024-04-18T11:39:22.966Z,656.30
2024-04-18T11:40:22.552Z,343.50
2024-04-18T11:41:22.537Z,416.20
2024-04-18T11:42:24.025Z,468.80
2024-04-18T11:43:22.508Z,439.60
2024-04-18T11:44:23.543Z,404.00
2024-04-18T11:45:22.590Z,462.20
2024-04-18T11:46:22.499Z,570.50
2024-04-18T11:47:22.516Z,477.70
2024-04-18T11:48:22.582Z,559.20
2024-04-18T11:49:22.497Z,523.30
2024-04-18T11:50:22.493Z,608.90
2024-04-18T11:51:22.492Z,657.60
2024-04-18T11:52:22.508Z,578.60
2024-04-18T11:53:22.473Z,540.70
2024-04-18T11:54:22.451Z,408.40
2024-04-18T11:55:23.498Z,420.90
2024-04-18T11:56:22.485Z,443.60
2024-04-18T11:57:22.488Z,516.20
2024-04-18T11:58:22.400Z,476.70
2024-04-18T11:59:22.419Z,518.60
2024-04-18T12:00:22.516Z,690.40
2024-04-18T12:01:22.401Z,364.80
2024-04-18T12:02:22.928Z,678.60
2024-04-18T12:03:22.436Z,679.80
2024-04-18T12:04:22.404Z,623.10
2024-04-18T12:05:22.497Z,617.80
2024-04-18T12:06:22.410Z,606.80
2024-04-18T12:07:22.351Z,601.90
2024-04-18T12:08:22.407Z,748.50
2024-04-18T12:09:22.387Z,678.90
2024-04-18T12:10:22.393Z,779.40
2024-04-18T12:11:22.396Z,655.00
2024-04-18T12:12:22.386Z,591.30
2024-04-18T12:13:22.353Z,511.30
2024-04-18T12:14:22.304Z,459.10
2024-04-18T12:15:22.329Z,763.10
2024-04-18T12:16:23.011Z,703.10
2024-04-18T12:17:22.333Z,692.10
2024-04-18T12:18:22.298Z,532.60
2024-04-18T12:19:22.335Z,722.80
2024-04-18T12:20:22.318Z,696.80
2024-04-18T12:21:22.294Z,679.70
2024-04-18T12:22:22.294Z,742.20
2024-04-18T12:23:22.271Z,698.60
2024-04-18T12:24:22.363Z,657.10
2024-04-18T12:25:22.273Z,635.50
2024-04-18T12:26:22.212Z,685.10
2024-04-18T12:27:22.437Z,693.10
2024-04-18T12:28:22.203Z,720.50
2024-04-18T12:29:22.373Z,579.70
2024-04-18T12:30:22.362Z,512.30